sensor_id;sensor_type;location;lat;lon;timestamp;temperature;humidity
47226;DHT22;32965;64.142;-21.912;2022-07-06T00:02:03;13.60;99.90
47226;DHT22;32965;64.142;-21.912;2022-07-06T00:04:33;13.60;99.90
47226;DHT22;32965;64.142;-21.912;2022-07-06T00:06:59;13.50;99.90
47226;DHT22;32965;64.142;-21.912;2022-07-06T00:09:25;13.50;99.90
47226;DHT22;32965;64.142;-21.912;2022-07-06T00:11:52;13.50;99.90
47226;DHT22;32965;64.142;-21.912;2022-07-06T00:14:18;13.40;99.90
47226;DHT22;32965;64.142;-21.912;2022-07-06T00:16:44;13.40;99.90
47226;DHT22;32965;64.142;-21.912;2022-07-06T00:19:13;13.40;99.90
47226;DHT22;32965;64.142;-21.912;2022-07-06T00:21:39;13.40;99.90
47226;DHT22;32965;64.142;-21.912;2022-07-06T00:24:05;13.30;99.90
47226;DHT22;32965;64.142;-21.912;2022-07-06T00:26:31;13.30;99.90
47226;DHT22;32965;64.142;-21.912;2022-07-06T00:28:57;13.20;99.90
47226;DHT22;32965;64.142;-21.912;2022-07-06T00:31:23;13.20;99.90
47226;DHT22;32965;64.142;-21.912;2022-07-06T00:33:49;13.20;99.90
47226;DHT22;32965;64.142;-21.912;2022-07-06T00:36:15;13.20;99.90
47226;DHT22;32965;64.142;-21.912;2022-07-06T00:38:42;13.10;99.90
47226;DHT22;32965;64.142;-21.912;2022-07-06T00:41:09;13.10;99.90
47226;DHT22;32965;64.142;-21.912;2022-07-06T00:43:52;13.10;99.90
47226;DHT22;32965;64.142;-21.912;2022-07-06T00:46:18;13.10;99.90
47226;DHT22;32965;64.142;-21.912;2022-07-06T00:48:44;13.00;99.90
47226;DHT22;32965;64.142;-21.912;2022-07-06T00:51:10;12.90;99.90
47226;DHT22;32965;64.142;-21.912;2022-07-06T00:53:40;13.00;99.90
47226;DHT22;32965;64.142;-21.912;2022-07-06T00:56:06;12.90;99.90
47226;DHT22;32965;64.142;-21.912;2022-07-06T00:58:32;12.90;99.90
47226;DHT22;32965;64.142;-21.912;2022-07-06T01:00:58;12.90;99.90
47226;DHT22;32965;64.142;-21.912;2022-07-06T01:03:23;12.90;99.90
47226;DHT22;32965;64.142;-21.912;2022-07-06T01:05:50;12.90;99.90
47226;DHT22;32965;64.142;-21.912;2022-07-06T01:08:16;12.90;99.90
47226;DHT22;32965;64.142;-21.912;2022-07-06T01:10:42;12.90;99.90
47226;DHT22;32965;64.142;-21.912;2022-07-06T01:13:08;12.90;99.90
47226;DHT22;32965;64.142;-21.912;2022-07-06T01:15:34;12.90;99.90
47226;DHT22;32965;64.142;-21.912;2022-07-06T01:18:00;12.90;99.90
47226;DHT22;32965;64.142;-21.912;2022-07-06T01:20:27;12.90;99.90
47226;DHT22;32965;64.142;-21.912;2022-07-06T01:22:54;12.90;99.90
47226;DHT22;32965;64.142;-21.912;2022-07-06T01:25:23;12.80;99.90
47226;DHT22;32965;64.142;-21.912;2022-07-06T01:27:49;12.80;99.90
47226;DHT22;32965;64.142;-21.912;2022-07-06T01:30:17;12.80;99.90
47226;DHT22;32965;64.142;-21.912;2022-07-06T01:32:44;12.80;99.90
47226;DHT22;32965;64.142;-21.912;2022-07-06T01:35:12;12.80;99.90
47226;DHT22;32965;64.142;-21.912;2022-07-06T01:37:39;12.80;99.90
47226;DHT22;32965;64.142;-21.912;2022-07-06T01:40:07;12.80;99.90
47226;DHT22;32965;64.142;-21.912;2022-07-06T01:42:35;12.70;99.90
47226;DHT22;32965;64.142;-21.912;2022-07-06T01:45:03;12.80;99.90
47226;DHT22;32965;64.142;-21.912;2022-07-06T01:47:29;12.70;99.90
47226;DHT22;32965;64.142;-21.912;2022-07-06T01:49:59;12.70;99.90
47226;DHT22;32965;64.142;-21.912;2022-07-06T01:52:25;12.70;99.90
47226;DHT22;32965;64.142;-21.912;2022-07-06T01:54:54;12.70;99.90
47226;DHT22;32965;64.142;-21.912;2022-07-06T01:57:21;12.70;99.90
47226;DHT22;32965;64.142;-21.912;2022-07-06T01:59:46;12.70;99.90
47226;DHT22;32965;64.142;-21.912;2022-07-06T02:02:12;12.60;99.90
47226;DHT22;32965;64.142;-21.912;2022-07-06T02:04:39;12.70;99.90
47226;DHT22;32965;64.142;-21.912;2022-07-06T02:07:04;12.70;99.90
47226;DHT22;32965;64.142;-21.912;2022-07-06T02:09:31;12.70;99.90
47226;DHT22;32965;64.142;-21.912;2022-07-06T02:11:57;12.70;99.90
47226;DHT22;32965;64.142;-21.912;2022-07-06T02:14:25;12.70;99.90
47226;DHT22;32965;64.142;-21.912;2022-07-06T02:16:52;12.60;99.90
47226;DHT22;32965;64.142;-21.912;2022-07-06T02:19:18;12.60;99.90
47226;DHT22;32965;64.142;-21.912;2022-07-06T02:21:44;12.60;99.90
47226;DHT22;32965;64.142;-21.912;2022-07-06T02:24:09;12.60;99.90
47226;DHT22;32965;64.142;-21.912;2022-07-06T02:26:35;12.50;99.90
47226;DHT22;32965;64.142;-21.912;2022-07-06T02:29:01;12.50;99.90
47226;DHT22;32965;64.142;-21.912;2022-07-06T02:31:27;12.50;99.90
47226;DHT22;32965;64.142;-21.912;2022-07-06T02:33:53;12.50;99.90
47226;DHT22;32965;64.142;-21.912;2022-07-06T02:36:18;12.50;99.90
47226;DHT22;32965;64.142;-21.912;2022-07-06T02:38:44;12.50;99.90
47226;DHT22;32965;64.142;-21.912;2022-07-06T02:41:10;12.50;99.90
47226;DHT22;32965;64.142;-21.912;2022-07-06T02:43:38;12.50;99.90
47226;DHT22;32965;64.142;-21.912;2022-07-06T02:46:05;12.50;99.90
47226;DHT22;32965;64.142;-21.912;2022-07-06T02:48:30;12.50;99.90
47226;DHT22;32965;64.142;-21.912;2022-07-06T02:50:57;12.50;99.90
47226;DHT22;32965;64.142;-21.912;2022-07-06T02:53:24;12.50;99.90
47226;DHT22;32965;64.142;-21.912;2022-07-06T02:55:50;12.50;99.90
47226;DHT22;32965;64.142;-21.912;2022-07-06T02:58:16;12.50;99.90
47226;DHT22;32965;64.142;-21.912;2022-07-06T03:00:41;12.50;99.90
47226;DHT22;32965;64.142;-21.912;2022-07-06T03:03:07;12.50;99.90
47226;DHT22;32965;64.142;-21.912;2022-07-06T03:05:34;12.50;99.90
47226;DHT22;32965;64.142;-21.912;2022-07-06T03:08:00;12.50;99.90
47226;DHT22;32965;64.142;-21.912;2022-07-06T03:10:26;12.50;99.90
47226;DHT22;32965;64.142;-21.912;2022-07-06T03:12:52;12.50;99.90
47226;DHT22;32965;64.142;-21.912;2022-07-06T03:15:20;12.50;99.90
47226;DHT22;32965;64.142;-21.912;2022-07-06T03:17:46;12.50;99.90
47226;DHT22;32965;64.142;-21.912;2022-07-06T03:20:12;12.50;99.90
47226;DHT22;32965;64.142;-21.912;2022-07-06T03:22:38;12.60;99.90
47226;DHT22;32965;64.142;-21.912;2022-07-06T03:25:04;12.50;99.90
47226;DHT22;32965;64.142;-21.912;2022-07-06T03:27:30;12.50;99.90
47226;DHT22;32965;64.142;-21.912;2022-07-06T03:29:55;12.50;99.90
47226;DHT22;32965;64.142;-21.912;2022-07-06T03:32:21;12.50;99.90
47226;DHT22;32965;64.142;-21.912;2022-07-06T03:34:48;12.50;99.90
47226;DHT22;32965;64.142;-21.912;2022-07-06T03:37:14;12.50;99.90
47226;DHT22;32965;64.142;-21.912;2022-07-06T03:39:40;12.50;99.90
47226;DHT22;32965;64.142;-21.912;2022-07-06T03:42:06;12.40;99.90
47226;DHT22;32965;64.142;-21.912;2022-07-06T03:44:31;12.40;99.90
47226;DHT22;32965;64.142;-21.912;2022-07-06T03:46:57;12.40;99.90
47226;DHT22;32965;64.142;-21.912;2022-07-06T03:49:23;12.40;99.90
47226;DHT22;32965;64.142;-21.912;2022-07-06T03:51:52;12.40;99.90
47226;DHT22;32965;64.142;-21.912;2022-07-06T03:54:18;12.40;99.90
47226;DHT22;32965;64.142;-21.912;2022-07-06T03:56:45;12.50;99.90
47226;DHT22;32965;64.142;-21.912;2022-07-06T03:59:11;12.50;99.90
47226;DHT22;32965;64.142;-21.912;2022-07-06T04:01:36;12.40;99.90
47226;DHT22;32965;64.142;-21.912;2022-07-06T04:04:02;12.40;99.90
47226;DHT22;32965;64.142;-21.912;2022-07-06T04:06:28;12.40;99.90
47226;DHT22;32965;64.142;-21.912;2022-07-06T04:08:55;12.30;99.90
47226;DHT22;32965;64.142;-21.912;2022-07-06T04:11:21;12.30;99.90
47226;DHT22;32965;64.142;-21.912;2022-07-06T04:13:47;12.30;99.90
47226;DHT22;32965;64.142;-21.912;2022-07-06T04:16:13;12.20;99.90
47226;DHT22;32965;64.142;-21.912;2022-07-06T04:18:39;12.20;99.90
47226;DHT22;32965;64.142;-21.912;2022-07-06T04:21:07;12.20;99.90
47226;DHT22;32965;64.142;-21.912;2022-07-06T04:23:32;12.10;99.90
47226;DHT22;32965;64.142;-21.912;2022-07-06T04:25:58;12.10;99.90
47226;DHT22;32965;64.142;-21.912;2022-07-06T04:28:24;12.10;99.90
47226;DHT22;32965;64.142;-21.912;2022-07-06T04:30:50;12.10;99.90
47226;DHT22;32965;64.142;-21.912;2022-07-06T04:33:16;12.10;99.90
47226;DHT22;32965;64.142;-21.912;2022-07-06T04:35:42;12.10;99.90
47226;DHT22;32965;64.142;-21.912;2022-07-06T04:38:08;12.20;99.90
47226;DHT22;32965;64.142;-21.912;2022-07-06T04:40:34;12.20;99.90
47226;DHT22;32965;64.142;-21.912;2022-07-06T04:43:01;12.30;99.90
47226;DHT22;32965;64.142;-21.912;2022-07-06T04:45:26;12.30;99.90
47226;DHT22;32965;64.142;-21.912;2022-07-06T04:47:52;12.30;99.90
47226;DHT22;32965;64.142;-21.912;2022-07-06T04:50:18;12.30;99.90
47226;DHT22;32965;64.142;-21.912;2022-07-06T04:52:44;12.20;99.90
47226;DHT22;32965;64.142;-21.912;2022-07-06T04:55:10;12.20;99.90
47226;DHT22;32965;64.142;-21.912;2022-07-06T04:57:37;12.20;99.90
47226;DHT22;32965;64.142;-21.912;2022-07-06T05:00:04;12.30;99.90
47226;DHT22;32965;64.142;-21.912;2022-07-06T05:02:32;12.20;99.90
47226;DHT22;32965;64.142;-21.912;2022-07-06T05:04:58;12.20;99.90
47226;DHT22;32965;64.142;-21.912;2022-07-06T05:07:23;12.20;99.90
47226;DHT22;32965;64.142;-21.912;2022-07-06T05:09:53;12.20;99.90
47226;DHT22;32965;64.142;-21.912;2022-07-06T05:12:19;12.30;99.90
47226;DHT22;32965;64.142;-21.912;2022-07-06T05:14:45;12.30;99.90
47226;DHT22;32965;64.142;-21.912;2022-07-06T05:17:11;12.40;99.90
47226;DHT22;32965;64.142;-21.912;2022-07-06T05:19:37;12.50;99.90
47226;DHT22;32965;64.142;-21.912;2022-07-06T05:22:03;12.60;99.90
47226;DHT22;32965;64.142;-21.912;2022-07-06T05:24:28;12.70;99.90
47226;DHT22;32965;64.142;-21.912;2022-07-06T05:26:54;12.70;99.90
47226;DHT22;32965;64.142;-21.912;2022-07-06T05:29:20;12.70;99.90
47226;DHT22;32965;64.142;-21.912;2022-07-06T05:31:46;12.70;99.90
47226;DHT22;32965;64.142;-21.912;2022-07-06T05:34:12;12.60;99.90
47226;DHT22;32965;64.142;-21.912;2022-07-06T05:36:38;12.60;99.90
47226;DHT22;32965;64.142;-21.912;2022-07-06T05:39:04;12.60;99.90
47226;DHT22;32965;64.142;-21.912;2022-07-06T05:41:29;12.60;99.90
47226;DHT22;32965;64.142;-21.912;2022-07-06T05:43:55;12.60;99.90
47226;DHT22;32965;64.142;-21.912;2022-07-06T05:46:21;12.60;99.90
47226;DHT22;32965;64.142;-21.912;2022-07-06T05:48:47;12.60;99.90
47226;DHT22;32965;64.142;-21.912;2022-07-06T05:51:32;12.60;99.90
47226;DHT22;32965;64.142;-21.912;2022-07-06T05:53:57;12.60;99.90
47226;DHT22;32965;64.142;-21.912;2022-07-06T05:56:25;12.70;99.90
47226;DHT22;32965;64.142;-21.912;2022-07-06T05:58:51;12.70;99.90
47226;DHT22;32965;64.142;-21.912;2022-07-06T06:01:17;12.80;99.90
47226;DHT22;32965;64.142;-21.912;2022-07-06T06:03:43;12.80;99.90
47226;DHT22;32965;64.142;-21.912;2022-07-06T06:06:09;12.90;99.90
47226;DHT22;32965;64.142;-21.912;2022-07-06T06:08:35;12.90;99.90
47226;DHT22;32965;64.142;-21.912;2022-07-06T06:11:02;12.90;99.90
47226;DHT22;32965;64.142;-21.912;2022-07-06T06:13:27;13.00;99.90
47226;DHT22;32965;64.142;-21.912;2022-07-06T06:15:54;13.10;99.90
47226;DHT22;32965;64.142;-21.912;2022-07-06T06:18:20;13.10;99.90
47226;DHT22;32965;64.142;-21.912;2022-07-06T06:20:47;13.20;99.90
47226;DHT22;32965;64.142;-21.912;2022-07-06T06:23:14;13.20;99.90
47226;DHT22;32965;64.142;-21.912;2022-07-06T06:25:42;13.40;99.90
47226;DHT22;32965;64.142;-21.912;2022-07-06T06:28:09;13.50;99.90
47226;DHT22;32965;64.142;-21.912;2022-07-06T06:30:36;13.60;99.90
47226;DHT22;32965;64.142;-21.912;2022-07-06T06:33:10;13.70;99.90
47226;DHT22;32965;64.142;-21.912;2022-07-06T06:35:42;13.70;99.90
47226;DHT22;32965;64.142;-21.912;2022-07-06T06:38:08;13.80;99.90
47226;DHT22;32965;64.142;-21.912;2022-07-06T06:40:34;13.90;99.90
47226;DHT22;32965;64.142;-21.912;2022-07-06T06:43:00;14.00;99.90
47226;DHT22;32965;64.142;-21.912;2022-07-06T06:45:26;14.00;99.90
47226;DHT22;32965;64.142;-21.912;2022-07-06T06:47:52;14.10;99.90
47226;DHT22;32965;64.142;-21.912;2022-07-06T06:50:18;14.00;99.90
47226;DHT22;32965;64.142;-21.912;2022-07-06T06:52:44;14.00;99.90
47226;DHT22;32965;64.142;-21.912;2022-07-06T06:55:10;14.00;99.90
47226;DHT22;32965;64.142;-21.912;2022-07-06T06:57:36;14.00;99.90
47226;DHT22;32965;64.142;-21.912;2022-07-06T07:00:04;14.00;99.90
47226;DHT22;32965;64.142;-21.912;2022-07-06T07:02:30;14.10;99.90
47226;DHT22;32965;64.142;-21.912;2022-07-06T07:04:56;14.10;99.90
47226;DHT22;32965;64.142;-21.912;2022-07-06T07:07:22;14.10;99.90
47226;DHT22;32965;64.142;-21.912;2022-07-06T07:09:47;14.10;99.90
47226;DHT22;32965;64.142;-21.912;2022-07-06T07:12:13;14.20;99.90
47226;DHT22;32965;64.142;-21.912;2022-07-06T07:14:40;14.40;99.80
47226;DHT22;32965;64.142;-21.912;2022-07-06T07:17:06;14.50;99.60
47226;DHT22;32965;64.142;-21.912;2022-07-06T07:19:32;14.60;99.40
47226;DHT22;32965;64.142;-21.912;2022-07-06T07:21:58;14.70;99.00
47226;DHT22;32965;64.142;-21.912;2022-07-06T07:24:24;14.90;98.70
47226;DHT22;32965;64.142;-21.912;2022-07-06T07:26:50;15.20;98.60
47226;DHT22;32965;64.142;-21.912;2022-07-06T07:29:15;15.70;98.30
47226;DHT22;32965;64.142;-21.912;2022-07-06T07:31:41;16.10;97.40
47226;DHT22;32965;64.142;-21.912;2022-07-06T07:34:07;16.20;96.80
47226;DHT22;32965;64.142;-21.912;2022-07-06T07:36:34;16.30;95.90
47226;DHT22;32965;64.142;-21.912;2022-07-06T07:39:00;16.60;95.70
47226;DHT22;32965;64.142;-21.912;2022-07-06T07:41:26;17.00;95.00
47226;DHT22;32965;64.142;-21.912;2022-07-06T07:43:52;17.60;94.40
47226;DHT22;32965;64.142;-21.912;2022-07-06T07:46:19;18.50;93.20
47226;DHT22;32965;64.142;-21.912;2022-07-06T07:48:45;19.60;91.60
47226;DHT22;32965;64.142;-21.912;2022-07-06T07:51:11;20.40;88.40
47226;DHT22;32965;64.142;-21.912;2022-07-06T07:53:41;20.60;84.40
47226;DHT22;32965;64.142;-21.912;2022-07-06T07:56:07;20.30;80.30
47226;DHT22;32965;64.142;-21.912;2022-07-06T07:58:35;20.00;80.80
47226;DHT22;32965;64.142;-21.912;2022-07-06T08:01:01;19.70;79.90
47226;DHT22;32965;64.142;-21.912;2022-07-06T08:03:27;19.60;79.80
47226;DHT22;32965;64.142;-21.912;2022-07-06T08:05:53;19.80;80.00
47226;DHT22;32965;64.142;-21.912;2022-07-06T08:08:19;19.80;79.00
47226;DHT22;32965;64.142;-21.912;2022-07-06T08:10:44;19.70;78.60
47226;DHT22;32965;64.142;-21.912;2022-07-06T08:13:10;19.60;78.80
47226;DHT22;32965;64.142;-21.912;2022-07-06T08:15:37;19.70;78.80
47226;DHT22;32965;64.142;-21.912;2022-07-06T08:18:04;19.90;77.10
47226;DHT22;32965;64.142;-21.912;2022-07-06T08:20:31;20.30;76.00
47226;DHT22;32965;64.142;-21.912;2022-07-06T08:22:59;20.70;74.80
47226;DHT22;32965;64.142;-21.912;2022-07-06T08:25:26;20.90;72.00
47226;DHT22;32965;64.142;-21.912;2022-07-06T08:27:52;20.80;70.60
47226;DHT22;32965;64.142;-21.912;2022-07-06T08:30:19;20.70;70.70
47226;DHT22;32965;64.142;-21.912;2022-07-06T08:32:45;20.80;69.70
47226;DHT22;32965;64.142;-21.912;2022-07-06T08:35:11;20.60;68.50
47226;DHT22;32965;64.142;-21.912;2022-07-06T08:37:37;20.60;68.80
47226;DHT22;32965;64.142;-21.912;2022-07-06T08:40:04;20.60;68.80
47226;DHT22;32965;64.142;-21.912;2022-07-06T08:42:34;20.80;69.30
47226;DHT22;32965;64.142;-21.912;2022-07-06T08:45:01;21.10;68.20
47226;DHT22;32965;64.142;-21.912;2022-07-06T08:47:28;21.50;66.90
47226;DHT22;32965;64.142;-21.912;2022-07-06T08:49:55;22.00;65.00
47226;DHT22;32965;64.142;-21.912;2022-07-06T08:52:23;22.20;63.60
47226;DHT22;32965;64.142;-21.912;2022-07-06T08:54:49;22.30;62.10
47226;DHT22;32965;64.142;-21.912;2022-07-06T08:57:15;22.30;62.30
47226;DHT22;32965;64.142;-21.912;2022-07-06T08:59:41;22.10;62.10
47226;DHT22;32965;64.142;-21.912;2022-07-06T09:02:09;21.70;62.80
47226;DHT22;32965;64.142;-21.912;2022-07-06T09:04:36;21.50;63.90
47226;DHT22;32965;64.142;-21.912;2022-07-06T09:07:03;21.30;64.50
47226;DHT22;32965;64.142;-21.912;2022-07-06T09:09:30;21.10;65.30
47226;DHT22;32965;64.142;-21.912;2022-07-06T09:11:57;20.90;65.60
47226;DHT22;32965;64.142;-21.912;2022-07-06T09:14:23;20.80;66.40
47226;DHT22;32965;64.142;-21.912;2022-07-06T09:17:04;20.70;67.10
47226;DHT22;32965;64.142;-21.912;2022-07-06T09:19:31;20.60;67.10
47226;DHT22;32965;64.142;-21.912;2022-07-06T09:21:58;20.30;67.50
47226;DHT22;32965;64.142;-21.912;2022-07-06T09:24:24;20.00;67.70
47226;DHT22;32965;64.142;-21.912;2022-07-06T09:26:55;19.90;68.70
47226;DHT22;32965;64.142;-21.912;2022-07-06T09:29:31;19.90;68.90
47226;DHT22;32965;64.142;-21.912;2022-07-06T09:31:58;19.80;68.70
47226;DHT22;32965;64.142;-21.912;2022-07-06T09:34:24;19.60;69.50
47226;DHT22;32965;64.142;-21.912;2022-07-06T09:36:53;19.60;69.70
47226;DHT22;32965;64.142;-21.912;2022-07-06T09:39:28;19.50;70.20
47226;DHT22;32965;64.142;-21.912;2022-07-06T09:41:59;19.40;69.60
47226;DHT22;32965;64.142;-21.912;2022-07-06T09:44:31;19.30;69.20
47226;DHT22;32965;64.142;-21.912;2022-07-06T09:46:59;19.40;69.00
47226;DHT22;32965;64.142;-21.912;2022-07-06T09:49:26;19.40;68.70
47226;DHT22;32965;64.142;-21.912;2022-07-06T09:51:59;19.40;68.80
47226;DHT22;32965;64.142;-21.912;2022-07-06T09:54:25;19.40;68.90
47226;DHT22;32965;64.142;-21.912;2022-07-06T09:56:52;19.30;69.70
47226;DHT22;32965;64.142;-21.912;2022-07-06T09:59:20;19.20;69.80
47226;DHT22;32965;64.142;-21.912;2022-07-06T10:01:47;19.10;70.00
47226;DHT22;32965;64.142;-21.912;2022-07-06T10:04:16;19.00;70.20
47226;DHT22;32965;64.142;-21.912;2022-07-06T10:06:44;19.00;70.80
47226;DHT22;32965;64.142;-21.912;2022-07-06T10:09:12;19.00;70.90
47226;DHT22;32965;64.142;-21.912;2022-07-06T10:11:40;19.00;71.30
47226;DHT22;32965;64.142;-21.912;2022-07-06T10:14:09;18.80;71.90
47226;DHT22;32965;64.142;-21.912;2022-07-06T10:16:37;18.70;72.70
47226;DHT22;32965;64.142;-21.912;2022-07-06T10:19:08;18.60;73.80
47226;DHT22;32965;64.142;-21.912;2022-07-06T10:21:39;18.40;74.50
47226;DHT22;32965;64.142;-21.912;2022-07-06T10:24:08;18.30;75.50
47226;DHT22;32965;64.142;-21.912;2022-07-06T10:26:36;18.30;76.60
47226;DHT22;32965;64.142;-21.912;2022-07-06T10:29:04;18.20;77.20
47226;DHT22;32965;64.142;-21.912;2022-07-06T10:31:31;18.00;78.10
47226;DHT22;32965;64.142;-21.912;2022-07-06T10:33:58;18.00;78.90
47226;DHT22;32965;64.142;-21.912;2022-07-06T10:36:28;17.90;79.50
47226;DHT22;32965;64.142;-21.912;2022-07-06T10:38:54;17.80;80.30
47226;DHT22;32965;64.142;-21.912;2022-07-06T10:41:31;17.70;81.40
47226;DHT22;32965;64.142;-21.912;2022-07-06T10:44:18;17.70;82.20
47226;DHT22;32965;64.142;-21.912;2022-07-06T10:46:55;17.70;83.10
47226;DHT22;32965;64.142;-21.912;2022-07-06T10:49:23;17.60;83.70
47226;DHT22;32965;64.142;-21.912;2022-07-06T10:51:49;17.40;84.20
47226;DHT22;32965;64.142;-21.912;2022-07-06T10:54:19;17.30;85.00
47226;DHT22;32965;64.142;-21.912;2022-07-06T10:56:47;17.20;85.70
47226;DHT22;32965;64.142;-21.912;2022-07-06T10:59:18;17.10;86.50
47226;DHT22;32965;64.142;-21.912;2022-07-06T11:02:16;17.10;86.50
47226;DHT22;32965;64.142;-21.912;2022-07-06T11:04:47;17.20;86.20
47226;DHT22;32965;64.142;-21.912;2022-07-06T11:07:16;17.20;86.00
47226;DHT22;32965;64.142;-21.912;2022-07-06T11:09:54;17.20;83.40
47226;DHT22;32965;64.142;-21.912;2022-07-06T11:12:20;17.20;83.40
47226;DHT22;32965;64.142;-21.912;2022-07-06T11:14:49;17.20;83.70
47226;DHT22;32965;64.142;-21.912;2022-07-06T11:17:16;17.10;83.40
47226;DHT22;32965;64.142;-21.912;2022-07-06T11:19:50;17.20;83.50
47226;DHT22;32965;64.142;-21.912;2022-07-06T11:22:20;17.20;82.30
47226;DHT22;32965;64.142;-21.912;2022-07-06T11:24:46;17.10;82.10
47226;DHT22;32965;64.142;-21.912;2022-07-06T11:27:13;17.10;81.60
47226;DHT22;32965;64.142;-21.912;2022-07-06T11:29:39;17.10;81.30
47226;DHT22;32965;64.142;-21.912;2022-07-06T11:32:07;17.10;81.20
47226;DHT22;32965;64.142;-21.912;2022-07-06T11:34:45;17.00;81.60
47226;DHT22;32965;64.142;-21.912;2022-07-06T11:37:12;17.00;81.80
47226;DHT22;32965;64.142;-21.912;2022-07-06T11:39:44;17.00;82.60
47226;DHT22;32965;64.142;-21.912;2022-07-06T11:42:12;17.00;82.70
47226;DHT22;32965;64.142;-21.912;2022-07-06T11:44:39;17.00;83.30
47226;DHT22;32965;64.142;-21.912;2022-07-06T11:47:06;17.00;83.40
47226;DHT22;32965;64.142;-21.912;2022-07-06T11:49:35;16.90;84.00
47226;DHT22;32965;64.142;-21.912;2022-07-06T11:52:09;16.90;85.00
47226;DHT22;32965;64.142;-21.912;2022-07-06T11:54:41;16.80;85.70
47226;DHT22;32965;64.142;-21.912;2022-07-06T11:57:22;16.70;86.40
47226;DHT22;32965;64.142;-21.912;2022-07-06T11:59:56;16.80;86.70
47226;DHT22;32965;64.142;-21.912;2022-07-06T12:02:22;16.70;87.20
47226;DHT22;32965;64.142;-21.912;2022-07-06T12:04:49;16.80;87.80
47226;DHT22;32965;64.142;-21.912;2022-07-06T12:07:16;16.80;87.80
47226;DHT22;32965;64.142;-21.912;2022-07-06T12:09:46;16.80;88.40
47226;DHT22;32965;64.142;-21.912;2022-07-06T12:12:13;16.90;88.30
47226;DHT22;32965;64.142;-21.912;2022-07-06T12:14:40;17.00;88.60
47226;DHT22;32965;64.142;-21.912;2022-07-06T12:17:11;17.10;88.50
47226;DHT22;32965;64.142;-21.912;2022-07-06T12:19:38;17.20;87.60
47226;DHT22;32965;64.142;-21.912;2022-07-06T12:22:05;17.20;87.60
47226;DHT22;32965;64.142;-21.912;2022-07-06T12:24:33;17.10;87.90
47226;DHT22;32965;64.142;-21.912;2022-07-06T12:27:10;17.10;87.90
47226;DHT22;32965;64.142;-21.912;2022-07-06T12:29:37;17.00;88.20
47226;DHT22;32965;64.142;-21.912;2022-07-06T12:32:03;16.90;89.10
47226;DHT22;32965;64.142;-21.912;2022-07-06T12:34:31;17.00;89.10
47226;DHT22;32965;64.142;-21.912;2022-07-06T12:36:59;16.90;88.90
47226;DHT22;32965;64.142;-21.912;2022-07-06T12:39:26;16.90;88.80
47226;DHT22;32965;64.142;-21.912;2022-07-06T12:42:01;16.80;89.10
47226;DHT22;32965;64.142;-21.912;2022-07-06T12:44:29;16.70;89.60
47226;DHT22;32965;64.142;-21.912;2022-07-06T12:47:10;16.80;89.60
47226;DHT22;32965;64.142;-21.912;2022-07-06T12:49:37;17.10;89.10
47226;DHT22;32965;64.142;-21.912;2022-07-06T12:57:08;17.50;87.50
47226;DHT22;32965;64.142;-21.912;2022-07-06T12:59:38;17.40;87.60
47226;DHT22;32965;64.142;-21.912;2022-07-06T13:02:04;17.50;87.20
47226;DHT22;32965;64.142;-21.912;2022-07-06T13:04:31;17.70;87.50
47226;DHT22;32965;64.142;-21.912;2022-07-06T13:06:59;17.80;86.90
47226;DHT22;32965;64.142;-21.912;2022-07-06T13:09:25;18.00;86.10
47226;DHT22;32965;64.142;-21.912;2022-07-06T13:11:51;18.10;85.60
47226;DHT22;32965;64.142;-21.912;2022-07-06T13:14:18;18.20;85.30
47226;DHT22;32965;64.142;-21.912;2022-07-06T13:16:45;18.00;85.50
47226;DHT22;32965;64.142;-21.912;2022-07-06T13:19:12;18.00;86.20
47226;DHT22;32965;64.142;-21.912;2022-07-06T13:21:38;17.90;86.50
47226;DHT22;32965;64.142;-21.912;2022-07-06T13:24:05;17.90;86.60
47226;DHT22;32965;64.142;-21.912;2022-07-06T13:26:31;18.00;86.80
47226;DHT22;32965;64.142;-21.912;2022-07-06T13:29:01;18.00;86.70
47226;DHT22;32965;64.142;-21.912;2022-07-06T13:31:27;18.10;86.70
47226;DHT22;32965;64.142;-21.912;2022-07-06T13:33:54;18.20;86.50
47226;DHT22;32965;64.142;-21.912;2022-07-06T13:36:19;18.30;85.90
47226;DHT22;32965;64.142;-21.912;2022-07-06T13:38:45;18.30;85.80
47226;DHT22;32965;64.142;-21.912;2022-07-06T13:41:11;18.10;85.80
47226;DHT22;32965;64.142;-21.912;2022-07-06T13:43:37;18.00;86.20
47226;DHT22;32965;64.142;-21.912;2022-07-06T13:46:07;17.90;86.10
47226;DHT22;32965;64.142;-21.912;2022-07-06T13:48:34;17.70;87.10
47226;DHT22;32965;64.142;-21.912;2022-07-06T13:51:00;17.60;87.90
47226;DHT22;32965;64.142;-21.912;2022-07-06T13:53:26;17.70;88.00
47226;DHT22;32965;64.142;-21.912;2022-07-06T13:55:52;17.70;87.80
47226;DHT22;32965;64.142;-21.912;2022-07-06T13:58:19;17.60;88.20
47226;DHT22;32965;64.142;-21.912;2022-07-06T14:00:46;17.70;88.40
47226;DHT22;32965;64.142;-21.912;2022-07-06T14:03:12;17.60;88.30
47226;DHT22;32965;64.142;-21.912;2022-07-06T14:05:38;17.50;88.70
47226;DHT22;32965;64.142;-21.912;2022-07-06T14:08:04;17.40;89.50
47226;DHT22;32965;64.142;-21.912;2022-07-06T14:10:30;17.30;90.00
47226;DHT22;32965;64.142;-21.912;2022-07-06T14:12:55;17.30;90.10
47226;DHT22;32965;64.142;-21.912;2022-07-06T14:15:21;17.30;90.30
47226;DHT22;32965;64.142;-21.912;2022-07-06T14:17:47;17.30;90.30
47226;DHT22;32965;64.142;-21.912;2022-07-06T14:20:14;17.30;90.40
47226;DHT22;32965;64.142;-21.912;2022-07-06T14:22:40;17.20;90.40
47226;DHT22;32965;64.142;-21.912;2022-07-06T14:25:07;17.30;90.50
47226;DHT22;32965;64.142;-21.912;2022-07-06T14:27:34;17.30;90.40
47226;DHT22;32965;64.142;-21.912;2022-07-06T14:30:00;17.30;90.30
47226;DHT22;32965;64.142;-21.912;2022-07-06T14:32:26;17.30;90.40
47226;DHT22;32965;64.142;-21.912;2022-07-06T14:34:52;17.30;90.30
47226;DHT22;32965;64.142;-21.912;2022-07-06T14:37:18;17.30;90.30
47226;DHT22;32965;64.142;-21.912;2022-07-06T14:39:44;17.20;90.40
47226;DHT22;32965;64.142;-21.912;2022-07-06T14:42:12;17.40;90.40
47226;DHT22;32965;64.142;-21.912;2022-07-06T14:44:38;17.50;90.20
47226;DHT22;32965;64.142;-21.912;2022-07-06T14:47:04;17.60;90.00
47226;DHT22;32965;64.142;-21.912;2022-07-06T14:49:31;17.80;89.50
47226;DHT22;32965;64.142;-21.912;2022-07-06T14:51:57;17.80;88.90
47226;DHT22;32965;64.142;-21.912;2022-07-06T14:54:25;18.00;88.40
47226;DHT22;32965;64.142;-21.912;2022-07-06T14:56:51;18.20;87.70
47226;DHT22;32965;64.142;-21.912;2022-07-06T14:59:17;18.30;87.20
47226;DHT22;32965;64.142;-21.912;2022-07-06T15:01:43;18.20;86.80
47226;DHT22;32965;64.142;-21.912;2022-07-06T15:04:09;18.20;86.60
47226;DHT22;32965;64.142;-21.912;2022-07-06T15:06:35;18.00;86.80
47226;DHT22;32965;64.142;-21.912;2022-07-06T15:09:02;17.90;87.20